sensor_id;sensor_type;location;lat;lon;timestamp;temperature;humidity
8269;DHT22;4174;48.304;16.364;2023-07-08T00:01:21;18.80;99.90
8269;DHT22;4174;48.304;16.364;2023-07-08T00:07:25;18.70;99.90
8269;DHT22;4174;48.304;16.364;2023-07-08T00:13:28;18.60;99.90
8269;DHT22;4174;48.304;16.364;2023-07-08T00:19:32;18.60;99.90
8269;DHT22;4174;48.304;16.364;2023-07-08T00:25:35;18.50;99.90
8269;DHT22;4174;48.304;16.364;2023-07-08T00:31:39;18.40;99.90
8269;DHT22;4174;48.304;16.364;2023-07-08T00:37:45;18.40;99.90
8269;DHT22;4174;48.304;16.364;2023-07-08T00:43:49;18.20;99.90
8269;DHT22;4174;48.304;16.364;2023-07-08T00:49:56;18.20;99.90
8269;DHT22;4174;48.304;16.364;2023-07-08T00:56:04;18.20;99.90
8269;DHT22;4174;48.304;16.364;2023-07-08T01:02:06;18.10;99.90
8269;DHT22;4174;48.304;16.364;2023-07-08T01:08:08;18.00;99.90
8269;DHT22;4174;48.304;16.364;2023-07-08T01:14:12;17.90;99.90
8269;DHT22;4174;48.304;16.364;2023-07-08T01:20:14;17.80;99.90
8269;DHT22;4174;48.304;16.364;2023-07-08T01:26:17;17.60;99.90
8269;DHT22;4174;48.304;16.364;2023-07-08T01:32:20;17.60;99.90
8269;DHT22;4174;48.304;16.364;2023-07-08T01:38:25;17.60;99.90
8269;DHT22;4174;48.304;16.364;2023-07-08T01:44:30;17.50;99.90
8269;DHT22;4174;48.304;16.364;2023-07-08T01:50:32;17.40;99.90
8269;DHT22;4174;48.304;16.364;2023-07-08T01:56:35;17.40;99.90
8269;DHT22;4174;48.304;16.364;2023-07-08T02:02:39;17.30;99.90
8269;DHT22;4174;48.304;16.364;2023-07-08T02:08:43;17.30;99.90
8269;DHT22;4174;48.304;16.364;2023-07-08T02:14:46;17.20;99.90
8269;DHT22;4174;48.304;16.364;2023-07-08T02:20:50;17.20;99.90
8269;DHT22;4174;48.304;16.364;2023-07-08T02:26:53;17.10;99.90
8269;DHT22;4174;48.304;16.364;2023-07-08T02:32:57;17.00;99.90
8269;DHT22;4174;48.304;16.364;2023-07-08T02:39:01;16.90;99.90
8269;DHT22;4174;48.304;16.364;2023-07-08T02:45:06;16.90;99.90
8269;DHT22;4174;48.304;16.364;2023-07-08T02:51:11;16.80;99.90
8269;DHT22;4174;48.304;16.364;2023-07-08T02:57:16;16.80;99.90
8269;DHT22;4174;48.304;16.364;2023-07-08T03:03:21;16.70;99.90
8269;DHT22;4174;48.304;16.364;2023-07-08T03:09:25;16.60;99.90
8269;DHT22;4174;48.304;16.364;2023-07-08T03:15:29;16.60;99.90
8269;DHT22;4174;48.304;16.364;2023-07-08T03:21:32;16.50;99.90
8269;DHT22;4174;48.304;16.364;2023-07-08T03:27:37;16.50;99.90
8269;DHT22;4174;48.304;16.364;2023-07-08T03:33:41;16.50;99.90
8269;DHT22;4174;48.304;16.364;2023-07-08T03:39:44;16.60;99.90
8269;DHT22;4174;48.304;16.364;2023-07-08T03:45:49;16.50;99.90
8269;DHT22;4174;48.304;16.364;2023-07-08T03:51:53;16.50;99.90
8269;DHT22;4174;48.304;16.364;2023-07-08T03:57:56;16.60;99.90
8269;DHT22;4174;48.304;16.364;2023-07-08T04:04:00;16.60;99.90
8269;DHT22;4174;48.304;16.364;2023-07-08T04:10:05;16.50;99.90
8269;DHT22;4174;48.304;16.364;2023-07-08T04:16:15;16.70;99.90
8269;DHT22;4174;48.304;16.364;2023-07-08T04:22:18;17.00;99.90
8269;DHT22;4174;48.304;16.364;2023-07-08T04:28:22;17.00;99.90
8269;DHT22;4174;48.304;16.364;2023-07-08T04:34:25;17.30;99.90
8269;DHT22;4174;48.304;16.364;2023-07-08T04:40:31;17.80;99.90
8269;DHT22;4174;48.304;16.364;2023-07-08T04:46:36;17.80;99.90
8269;DHT22;4174;48.304;16.364;2023-07-08T04:52:40;18.30;99.90
8269;DHT22;4174;48.304;16.364;2023-07-08T04:58:45;18.60;99.90
8269;DHT22;4174;48.304;16.364;2023-07-08T05:04:49;19.00;99.90
8269;DHT22;4174;48.304;16.364;2023-07-08T05:10:52;19.40;99.90
8269;DHT22;4174;48.304;16.364;2023-07-08T05:16:56;19.60;99.90
8269;DHT22;4174;48.304;16.364;2023-07-08T05:23:01;21.40;99.90
8269;DHT22;4174;48.304;16.364;2023-07-08T05:29:03;21.40;99.90
8269;DHT22;4174;48.304;16.364;2023-07-08T05:35:08;24.20;96.50
8269;DHT22;4174;48.304;16.364;2023-07-08T05:41:12;25.40;89.40
8269;DHT22;4174;48.304;16.364;2023-07-08T05:47:16;27.50;83.60
8269;DHT22;4174;48.304;16.364;2023-07-08T05:53:19;28.60;74.40
8269;DHT22;4174;48.304;16.364;2023-07-08T05:59:23;29.80;67.30
8269;DHT22;4174;48.304;16.364;2023-07-08T06:05:27;31.00;64.80
8269;DHT22;4174;48.304;16.364;2023-07-08T06:11:31;31.20;58.60
8269;DHT22;4174;48.304;16.364;2023-07-08T06:17:36;31.20;56.50
8269;DHT22;4174;48.304;16.364;2023-07-08T06:23:39;32.10;55.00
8269;DHT22;4174;48.304;16.364;2023-07-08T06:29:43;32.40;54.40
8269;DHT22;4174;48.304;16.364;2023-07-08T06:35:47;29.20;59.70
8269;DHT22;4174;48.304;16.364;2023-07-08T06:41:50;29.20;59.80
8269;DHT22;4174;48.304;16.364;2023-07-08T06:47:55;29.50;60.00
8269;DHT22;4174;48.304;16.364;2023-07-08T06:53:59;29.70;59.70
8269;DHT22;4174;48.304;16.364;2023-07-08T07:00:04;30.20;58.90
8269;DHT22;4174;48.304;16.364;2023-07-08T07:06:09;30.20;61.60
8269;DHT22;4174;48.304;16.364;2023-07-08T07:12:14;29.10;60.50
8269;DHT22;4174;48.304;16.364;2023-07-08T07:18:18;30.60;59.30
8269;DHT22;4174;48.304;16.364;2023-07-08T07:24:22;30.50;59.40
8269;DHT22;4174;48.304;16.364;2023-07-08T07:30:26;31.20;56.20
8269;DHT22;4174;48.304;16.364;2023-07-08T07:36:29;30.70;54.90
8269;DHT22;4174;48.304;16.364;2023-07-08T07:42:32;29.80;57.30
8269;DHT22;4174;48.304;16.364;2023-07-08T07:48:38;30.50;57.30
8269;DHT22;4174;48.304;16.364;2023-07-08T07:54:42;30.20;59.40
8269;DHT22;4174;48.304;16.364;2023-07-08T08:00:45;30.20;59.10
8269;DHT22;4174;48.304;16.364;2023-07-08T08:06:49;30.10;57.90
8269;DHT22;4174;48.304;16.364;2023-07-08T08:12:53;29.70;59.30
8269;DHT22;4174;48.304;16.364;2023-07-08T08:18:57;29.80;58.70
8269;DHT22;4174;48.304;16.364;2023-07-08T08:25:00;29.20;58.00
8269;DHT22;4174;48.304;16.364;2023-07-08T08:31:04;29.90;60.00
8269;DHT22;4174;48.304;16.364;2023-07-08T08:37:08;29.60;59.00
8269;DHT22;4174;48.304;16.364;2023-07-08T08:43:18;30.30;59.30
8269;DHT22;4174;48.304;16.364;2023-07-08T08:49:26;30.80;56.90
8269;DHT22;4174;48.304;16.364;2023-07-08T08:55:32;30.70;53.00
8269;DHT22;4174;48.304;16.364;2023-07-08T09:01:36;30.30;54.00
8269;DHT22;4174;48.304;16.364;2023-07-08T09:07:44;30.50;57.00
8269;DHT22;4174;48.304;16.364;2023-07-08T09:13:44;31.80;53.90
8269;DHT22;4174;48.304;16.364;2023-07-08T09:19:49;32.30;56.70
8269;DHT22;4174;48.304;16.364;2023-07-08T09:26:07;32.10;51.80
8269;DHT22;4174;48.304;16.364;2023-07-08T09:32:19;32.70;53.10
8269;DHT22;4174;48.304;16.364;2023-07-08T09:38:22;33.50;52.70
8269;DHT22;4174;48.304;16.364;2023-07-08T09:44:26;33.50;52.50
8269;DHT22;4174;48.304;16.364;2023-07-08T09:50:29;32.50;46.90
8269;DHT22;4174;48.304;16.364;2023-07-08T09:56:32;32.40;48.90
8269;DHT22;4174;48.304;16.364;2023-07-08T10:02:40;32.40;48.90
8269;DHT22;4174;48.304;16.364;2023-07-08T10:08:43;32.00;47.40
8269;DHT22;4174;48.304;16.364;2023-07-08T10:14:47;32.30;48.70
8269;DHT22;4174;48.304;16.364;2023-07-08T10:20:53;32.50;47.20
8269;DHT22;4174;48.304;16.364;2023-07-08T10:27:07;33.00;47.60
8269;DHT22;4174;48.304;16.364;2023-07-08T10:40:12;32.80;47.40
8269;DHT22;4174;48.304;16.364;2023-07-08T10:46:31;33.40;43.30
8269;DHT22;4174;48.304;16.364;2023-07-08T10:59:24;32.10;44.10
8269;DHT22;4174;48.304;16.364;2023-07-08T11:05:43;31.50;47.90
8269;DHT22;4174;48.304;16.364;2023-07-08T11:11:53;32.70;45.50
8269;DHT22;4174;48.304;16.364;2023-07-08T11:18:24;32.80;46.80
8269;DHT22;4174;48.304;16.364;2023-07-08T11:24:35;32.80;46.60
8269;DHT22;4174;48.304;16.364;2023-07-08T11:30:35;33.50;42.70
8269;DHT22;4174;48.304;16.364;2023-07-08T11:36:38;33.30;44.40
8269;DHT22;4174;48.304;16.364;2023-07-08T11:42:43;33.60;41.30
8269;DHT22;4174;48.304;16.364;2023-07-08T11:48:46;32.60;42.30
8269;DHT22;4174;48.304;16.364;2023-07-08T11:54:48;33.40;43.30
8269;DHT22;4174;48.304;16.364;2023-07-08T12:00:58;33.00;42.40
8269;DHT22;4174;48.304;16.364;2023-07-08T12:07:10;32.40;42.60
8269;DHT22;4174;48.304;16.364;2023-07-08T12:13:13;33.00;45.00
8269;DHT22;4174;48.304;16.364;2023-07-08T12:19:17;33.30;47.20
8269;DHT22;4174;48.304;16.364;2023-07-08T12:25:22;32.60;42.00
8269;DHT22;4174;48.304;16.364;2023-07-08T12:31:22;31.70;43.00
8269;DHT22;4174;48.304;16.364;2023-07-08T12:37:26;32.50;46.70
8269;DHT22;4174;48.304;16.364;2023-07-08T12:43:29;32.70;44.30
8269;DHT22;4174;48.304;16.364;2023-07-08T12:49:33;32.70;41.80
8269;DHT22;4174;48.304;16.364;2023-07-08T12:55:38;32.50;43.70
8269;DHT22;4174;48.304;16.364;2023-07-08T13:01:41;32.60;41.40
8269;DHT22;4174;48.304;16.364;2023-07-08T13:07:44;32.40;43.10
8269;DHT22;4174;48.304;16.364;2023-07-08T13:13:51;31.60;43.30
8269;DHT22;4174;48.304;16.364;2023-07-08T13:19:52;32.30;42.80
8269;DHT22;4174;48.304;16.364;2023-07-08T13:25:56;32.70;43.60
8269;DHT22;4174;48.304;16.364;2023-07-08T13:32:03;32.90;42.50
8269;DHT22;4174;48.304;16.364;2023-07-08T13:38:02;32.20;44.00
8269;DHT22;4174;48.304;16.364;2023-07-08T13:44:06;31.20;45.00
8269;DHT22;4174;48.304;16.364;2023-07-08T13:50:15;30.90;42.00
8269;DHT22;4174;48.304;16.364;2023-07-08T13:56:19;31.30;42.90
8269;DHT22;4174;48.304;16.364;2023-07-08T14:02:19;31.50;42.00
8269;DHT22;4174;48.304;16.364;2023-07-08T14:08:20;31.60;43.10
8269;DHT22;4174;48.304;16.364;2023-07-08T14:14:24;31.60;42.10
8269;DHT22;4174;48.304;16.364;2023-07-08T14:20:28;31.80;41.20
8269;DHT22;4174;48.304;16.364;2023-07-08T14:26:30;32.00;43.10
8269;DHT22;4174;48.304;16.364;2023-07-08T14:32:33;31.50;42.90
8269;DHT22;4174;48.304;16.364;2023-07-08T14:38:37;30.70;42.70
8269;DHT22;4174;48.304;16.364;2023-07-08T14:44:41;31.00;42.10
8269;DHT22;4174;48.304;16.364;2023-07-08T14:50:44;31.70;42.40
8269;DHT22;4174;48.304;16.364;2023-07-08T14:56:47;31.80;43.70
8269;DHT22;4174;48.304;16.364;2023-07-08T15:02:51;31.30;41.50
8269;DHT22;4174;48.304;16.364;2023-07-08T15:08:53;31.30;41.50
8269;DHT22;4174;48.304;16.364;2023-07-08T15:14:57;31.50;44.70
8269;DHT22;4174;48.304;16.364;2023-07-08T15:21:00;31.20;42.00
8269;DHT22;4174;48.304;16.364;2023-07-08T15:27:04;30.70;43.60
8269;DHT22;4174;48.304;16.364;2023-07-08T15:33:08;30.70;42.20
8269;DHT22;4174;48.304;16.364;2023-07-08T15:39:11;30.90;42.00
8269;DHT22;4174;48.304;16.364;2023-07-08T15:45:24;30.50;42.90
8269;DHT22;4174;48.304;16.364;2023-07-08T15:51:25;30.50;42.90
8269;DHT22;4174;48.304;16.364;2023-07-08T15:57:30;30.30;43.30
8269;DHT22;4174;48.304;16.364;2023-07-08T16:03:35;30.60;43.00
8269;DHT22;4174;48.304;16.364;2023-07-08T16:09:36;30.50;43.10
8269;DHT22;4174;48.304;16.364;2023-07-08T16:15:39;30.60;45.80
8269;DHT22;4174;48.304;16.364;2023-07-08T16:21:42;30.10;44.00
8269;DHT22;4174;48.304;16.364;2023-07-08T16:27:46;30.10;44.00
8269;DHT22;4174;48.304;16.364;2023-07-08T16:33:48;29.70;43.30
8269;DHT22;4174;48.304;16.364;2023-07-08T16:39:54;30.20;43.30
8269;DHT22;4174;48.304;16.364;2023-07-08T16:45:59;30.20;43.30
8269;DHT22;4174;48.304;16.364;2023-07-08T16:52:00;30.00;43.30
8269;DHT22;4174;48.304;16.364;2023-07-08T16:58:03;30.30;45.30
8269;DHT22;4174;48.304;16.364;2023-07-08T17:04:08;30.10;44.40
8269;DHT22;4174;48.304;16.364;2023-07-08T17:10:10;29.90;44.70
8269;DHT22;4174;48.304;16.364;2023-07-08T17:16:18;29.70;45.90
8269;DHT22;4174;48.304;16.364;2023-07-08T17:22:19;29.50;45.60
8269;DHT22;4174;48.304;16.364;2023-07-08T17:28:26;29.30;45.60
8269;DHT22;4174;48.304;16.364;2023-07-08T17:34:30;29.30;46.70
8269;DHT22;4174;48.304;16.364;2023-07-08T17:40:33;29.40;46.70
8269;DHT22;4174;48.304;16.364;2023-07-08T17:46:36;29.50;47.40
8269;DHT22;4174;48.304;16.364;2023-07-08T17:52:40;29.30;46.70
8269;DHT22;4174;48.304;16.364;2023-07-08T17:58:43;29.30;47.30
8269;DHT22;4174;48.304;16.364;2023-07-08T18:04:46;29.20;47.80
8269;DHT22;4174;48.304;16.364;2023-07-08T18:10:50;29.10;49.10
8269;DHT22;4174;48.304;16.364;2023-07-08T18:16:53;29.10;47.00
8269;DHT22;4174;48.304;16.364;2023-07-08T18:22:57;28.70;54.10
8269;DHT22;4174;48.304;16.364;2023-07-08T18:29:02;28.50;57.70
8269;DHT22;4174;48.304;16.364;2023-07-08T18:35:24;28.50;57.70
8269;DHT22;4174;48.304;16.364;2023-07-08T18:41:27;28.20;61.40
8269;DHT22;4174;48.304;16.364;2023-07-08T18:47:29;27.90;60.00
8269;DHT22;4174;48.304;16.364;2023-07-08T18:53:34;27.60;65.40
8269;DHT22;4174;48.304;16.364;2023-07-08T18:59:38;27.30;67.80
8269;DHT22;4174;48.304;16.364;2023-07-08T19:05:42;26.90;71.30
8269;DHT22;4174;48.304;16.364;2023-07-08T19:11:46;26.70;76.80
8269;DHT22;4174;48.304;16.364;2023-07-08T19:17:50;26.40;82.30
8269;DHT22;4174;48.304;16.364;2023-07-08T19:23:52;26.10;83.60
8269;DHT22;4174;48.304;16.364;2023-07-08T19:29:55;25.80;87.70
8269;DHT22;4174;48.304;16.364;2023-07-08T19:35:59;25.60;93.20
8269;DHT22;4174;48.304;16.364;2023-07-08T19:42:03;25.30;94.30
8269;DHT22;4174;48.304;16.364;2023-07-08T19:48:08;25.20;97.00
8269;DHT22;4174;48.304;16.364;2023-07-08T19:54:10;25.10;99.90
8269;DHT22;4174;48.304;16.364;2023-07-08T20:00:24;24.90;99.90
8269;DHT22;4174;48.304;16.364;2023-07-08T20:06:30;24.70;99.90
8269;DHT22;4174;48.304;16.364;2023-07-08T20:12:34;24.60;99.90
8269;DHT22;4174;48.304;16.364;2023-07-08T20:18:38;24.50;99.90
8269;DHT22;4174;48.304;16.364;2023-07-08T20:24:42;24.30;99.90
8269;DHT22;4174;48.304;16.364;2023-07-08T20:30:46;24.10;99.90
8269;DHT22;4174;48.304;16.364;2023-07-08T20:36:51;23.70;99.90
8269;DHT22;4174;48.304;16.364;2023-07-08T20:42:54;23.70;99.90
8269;DHT22;4174;48.304;16.364;2023-07-08T20:48:58;23.60;99.90
8269;DHT22;4174;48.304;16.364;2023-07-08T20:55:01;23.40;99.90
8269;DHT22;4174;48.304;16.364;2023-07-08T21:01:05;23.20;99.90
8269;DHT22;4174;48.304;16.364;2023-07-08T21:07:09;23.10;99.90
8269;DHT22;4174;48.304;16.364;2023-07-08T21:13:13;22.90;99.90
8269;DHT22;4174;48.304;16.364;2023-07-08T21:19:17;22.80;99.90
8269;DHT22;4174;48.304;16.364;2023-07-08T21:25:21;22.70;99.90
8269;DHT22;4174;48.304;16.364;2023-07-08T21:31:23;22.60;99.90
8269;DHT22;4174;48.304;16.364;2023-07-08T21:37:28;22.30;99.90
8269;DHT22;4174;48.304;16.364;2023-07-08T21:43:32;22.30;99.90
8269;DHT22;4174;48.304;16.364;2023-07-08T21:49:37;22.00;99.90
8269;DHT22;4174;48.304;16.364;2023-07-08T21:55:41;21.90;99.90
8269;DHT22;4174;48.304;16.364;2023-07-08T22:01:45;21.80;99.90
8269;DHT22;4174;48.304;16.364;2023-07-08T22:07:49;21.70;99.90
8269;DHT22;4174;48.304;16.364;2023-07-08T22:13:52;21.70;99.90
8269;DHT22;4174;48.304;16.364;2023-07-08T22:19:56;21.50;99.90
8269;DHT22;4174;48.304;16.364;2023-07-08T22:26:01;21.50;99.90
8269;DHT22;4174;48.304;16.364;2023-07-08T22:32:07;21.40;99.90
8269;DHT22;4174;48.304;16.364;2023-07-08T22:38:08;21.40;99.90
8269;DHT22;4174;48.304;16.364;2023-07-08T22:44:10;21.30;99.90
8269;DHT22;4174;48.304;16.364;2023-07-08T22:50:14;21.20;99.90
8269;DHT22;4174;48.304;16.364;2023-07-08T22:56:17;21.20;99.90
8269;DHT22;4174;48.304;16.364;2023-07-08T23:02:20;21.00;99.90
8269;DHT22;4174;48.304;16.364;2023-07-08T23:08:29;21.00;99.90
8269;DHT22;4174;48.304;16.364;2023-07-08T23:14:31;20.90;99.90
8269;DHT22;4174;48.304;16.364;2023-07-08T23:20:35;20.80;99.90
8269;DHT22;4174;48.304;16.364;2023-07-08T23:26:40;20.80;99.90
8269;DHT22;4174;48.304;16.364;2023-07-08T23:32:42;20.80;99.90
8269;DHT22;4174;48.304;16.364;2023-07-08T23:38:45;20.70;99.90
8269;DHT22;4174;48.304;16.364;2023-07-08T23:44:48;20.70;99.90
8269;DHT22;4174;48.304;16.364;2023-07-08T23:50:51;20.60;99.90
8269;DHT22;4174;48.304;16.364;2023-07-08T23:56:57;20.50;99.90
